Time;durP1;ratioP1;P1;durP2;ratioP2;P2;SDS_P1;SDS_P2;PMS_P1;PMS_P2;Temp;Humidity;BMP_temperature;BMP_pressure;BME280_temperature;BME280_humidity;BME280_pressure;Samples;Min_cycle;Max_cycle;Signal;HPM_P1;HPM_P2
2020/12/29 00:00:35;;;;;;;32.42;14.00;;;1.50;99.90;;;;;;4909699;28;20120;-82
2020/12/29 00:02:59;;;;;;;38.40;15.02;;;1.50;99.90;;;;;;4913468;28;20106;-82
2020/12/29 00:05:22;;;;;;;42.60;16.10;;;1.50;99.90;;;;;;4914122;28;20085;-81
2020/12/29 00:07:54;;;;;;;39.83;14.93;;;1.40;99.90;;;;;;4911852;28;20106;-81
2020/12/29 00:10:19;;;;;;;43.38;15.27;;;;;;;;;;4915889;28;20085;-81
2020/12/29 00:12:42;;;;;;;39.10;16.13;;;1.40;99.90;;;;;;4912729;28;20240;-81
2020/12/29 00:15:10;;;;;;;41.70;16.65;;;1.40;99.90;;;;;;4913145;28;20143;-83
2020/12/29 00:17:34;;;;;;;41.58;16.02;;;1.40;99.90;;;;;;4912466;28;20087;-81
2020/12/29 00:20:00;;;;;;;44.05;16.48;;;1.40;99.90;;;;;;4908768;28;20110;-83
2020/12/29 00:22:24;;;;;;;46.15;17.65;;;1.50;99.90;;;;;;4913384;28;20423;-81
2020/12/29 00:24:48;;;;;;;40.67;16.73;;;1.40;99.90;;;;;;4917578;28;20096;-83
2020/12/29 00:27:12;;;;;;;42.22;16.60;;;;;;;;;;4911845;28;20107;-82
2020/12/29 00:29:36;;;;;;;53.03;17.52;;;1.40;99.90;;;;;;4910858;28;20126;-82
2020/12/29 00:32:00;;;;;;;52.53;18.20;;;1.40;99.90;;;;;;4912840;28;20179;-82
2020/12/29 00:34:25;;;;;;;47.03;18.23;;;1.50;99.90;;;;;;4913319;28;20092;-81
2020/12/29 00:36:51;;;;;;;50.25;19.23;;;1.50;99.90;;;;;;4920886;28;20179;-83
2020/12/29 00:39:14;;;;;;;47.30;18.35;;;1.40;99.90;;;;;;4913213;28;20536;-81
2020/12/29 00:41:37;;;;;;;49.30;19.17;;;1.40;99.90;;;;;;4909521;28;20559;-83
2020/12/29 00:44:02;;;;;;;49.08;19.17;;;;;;;;;;4916188;28;20132;-81
2020/12/29 00:46:28;;;;;;;53.83;20.52;;;1.30;99.90;;;;;;4915686;28;20166;-82
2020/12/29 00:48:51;;;;;;;50.47;18.95;;;1.30;99.90;;;;;;4914858;28;20145;-82
2020/12/29 00:51:15;;;;;;;54.10;19.98;;;1.30;99.90;;;;;;4904799;28;20088;-82
2020/12/29 00:53:40;;;;;;;53.55;19.65;;;1.30;99.90;;;;;;4908994;28;20080;-82
2020/12/29 00:56:08;;;;;;;58.50;19.83;;;1.30;99.90;;;;;;4914101;28;20084;-82
2020/12/29 00:58:33;;;;;;;59.22;20.70;;;1.30;99.90;;;;;;4911022;28;20115;-83
2020/12/29 01:00:58;;;;;;;52.67;19.77;;;1.30;99.90;;;;;;4904883;28;20087;-84
2020/12/29 01:03:22;;;;;;;55.33;20.92;;;;;;;;;;4913444;28;20484;-82
2020/12/29 01:05:46;;;;;;;50.17;17.75;;;1.30;99.90;;;;;;4913700;28;20099;-83
2020/12/29 01:08:10;;;;;;;54.42;19.23;;;1.20;99.90;;;;;;4914644;28;20112;-83
2020/12/29 01:10:40;;;;;;;54.70;20.95;;;1.20;99.90;;;;;;4913341;28;20082;-82
2020/12/29 01:13:04;;;;;;;62.00;20.10;;;1.20;99.90;;;;;;4914927;28;20087;-81
2020/12/29 01:15:28;;;;;;;63.00;20.80;;;1.20;99.90;;;;;;4914936;28;20120;-82
2020/12/29 01:17:52;;;;;;;56.20;20.80;;;1.20;99.90;;;;;;4907519;28;20534;-83
2020/12/29 01:20:25;;;;;;;70.32;20.70;;;1.20;99.90;;;;;;4910925;28;20456;-83
2020/12/29 01:22:51;;;;;;;66.63;19.95;;;1.20;99.90;;;;;;4912934;28;20207;-83
2020/12/29 01:25:25;;;;;;;65.97;20.58;;;1.20;99.90;;;;;;4912632;28;20170;-85
2020/12/29 01:27:48;;;;;;;63.80;19.27;;;1.10;99.90;;;;;;4911416;28;20182;-84
2020/12/29 01:30:13;;;;;;;59.55;20.10;;;;;;;;;;4930145;28;20096;-83
2020/12/29 01:32:42;;;;;;;57.33;20.00;;;1.10;99.90;;;;;;4923335;28;20091;-82
2020/12/29 01:35:08;;;;;;;52.10;18.90;;;;;;;;;;4916453;28;20096;-83
2020/12/29 01:37:31;;;;;;;49.80;19.73;;;;;;;;;;4914006;28;20085;-83
2020/12/29 01:40:04;;;;;;;57.58;20.70;;;1.20;99.90;;;;;;4920377;28;20163;-83
2020/12/29 01:42:35;;;;;;;52.33;18.08;;;1.20;99.90;;;;;;4887989;28;20143;-83
2020/12/29 01:45:07;;;;;;;51.13;17.85;;;1.20;99.90;;;;;;4904083;28;20165;-83
2020/12/29 01:47:41;;;;;;;47.95;18.05;;;1.10;99.90;;;;;;4912864;28;20087;-83
2020/12/29 01:50:14;;;;;;;47.83;17.63;;;1.20;99.90;;;;;;4909693;28;20102;-83
2020/12/29 01:52:48;;;;;;;47.45;17.55;;;1.20;99.90;;;;;;4909124;28;20085;-84
2020/12/29 01:55:11;;;;;;;44.58;17.42;;;;;;;;;;4916138;28;20111;-83
2020/12/29 01:57:37;;;;;;;51.40;18.90;;;1.20;99.90;;;;;;4923549;28;24710;-82
2020/12/29 02:00:10;;;;;;;47.72;17.45;;;1.10;99.90;;;;;;4919170;28;20116;-83
2020/12/29 02:02:42;;;;;;;45.90;17.35;;;;;;;;;;4912374;28;20081;-85
2020/12/29 02:05:07;;;;;;;49.15;17.10;;;1.10;99.90;;;;;;4907512;28;20199;-85
2020/12/29 02:07:35;;;;;;;50.23;17.60;;;1.00;99.90;;;;;;4910515;28;20531;-85
2020/12/29 02:09:58;;;;;;;50.20;17.33;;;;;;;;;;4902462;28;20094;-86
2020/12/29 02:12:29;;;;;;;45.58;17.75;;;1.00;99.90;;;;;;4914244;28;20096;-85
2020/12/29 02:14:55;;;;;;;51.25;18.52;;;1.00;99.90;;;;;;4905077;28;21043;-84
2020/12/29 02:17:21;;;;;;;46.35;17.33;;;1.00;99.90;;;;;;4910445;28;20091;-85
2020/12/29 02:19:45;;;;;;;49.03;17.90;;;;;;;;;;4914173;28;20098;-86
2020/12/29 02:22:08;;;;;;;46.83;17.40;;;1.00;99.90;;;;;;4927937;28;23039;-86
2020/12/29 02:24:33;;;;;;;45.15;16.73;;;1.10;99.90;;;;;;4917426;28;20129;-85
2020/12/29 02:27:07;;;;;;;43.35;16.85;;;1.00;99.90;;;;;;4914730;28;20097;-86
2020/12/29 02:29:32;;;;;;;47.40;17.38;;;0.90;99.90;;;;;;4916870;28;20139;-87
2020/12/29 02:32:04;;;;;;;55.78;19.25;;;1.00;99.90;;;;;;4910012;28;20100;-84
2020/12/29 02:34:29;;;;;;;48.97;17.30;;;;;;;;;;4907389;28;20121;-85
2020/12/29 02:36:55;;;;;;;43.95;16.67;;;1.00;99.90;;;;;;4913118;28;20093;-86
2020/12/29 02:39:18;;;;;;;44.00;17.75;;;1.00;99.90;;;;;;4909033;28;20115;-86
2020/12/29 02:41:45;;;;;;;46.90;17.65;;;1.00;99.90;;;;;;4902935;28;20168;-85
2020/12/29 02:44:13;;;;;;;47.53;17.20;;;1.00;99.90;;;;;;4921301;28;20094;-86
2020/12/29 02:46:47;;;;;;;46.90;17.25;;;1.00;99.90;;;;;;4917501;28;20098;-85
2020/12/29 02:49:10;;;;;;;41.92;16.10;;;;;;;;;;4906901;28;20178;-86
2020/12/29 02:51:34;;;;;;;50.42;17.02;;;1.00;99.90;;;;;;4915025;28;20516;-85
2020/12/29 02:54:15;;;;;;;47.58;18.33;;;0.90;99.90;;;;;;4911166;28;21807;-85
2020/12/29 02:56:46;;;;;;;44.85;16.60;;;0.90;99.90;;;;;;4926487;28;20586;-85
2020/12/29 02:59:09;;;;;;;57.35;19.15;;;0.90;99.90;;;;;;4911398;28;20114;-86
2020/12/29 03:01:35;;;;;;;42.28;16.35;;;;;;;;;;4917489;28;20182;-85
2020/12/29 03:04:10;;;;;;;46.22;17.27;;;0.90;99.90;;;;;;4916061;28;20113;-86
2020/12/29 03:06:46;;;;;;;48.17;18.40;;;0.90;99.90;;;;;;4906419;28;20083;-86
2020/12/29 03:09:13;;;;;;;51.22;16.83;;;0.90;99.90;;;;;;4920484;28;20085;-85
2020/12/29 03:11:45;;;;;;;49.17;17.33;;;0.90;99.90;;;;;;4916393;28;20083;-85
2020/12/29 03:14:09;;;;;;;51.55;18.63;;;1.00;99.90;;;;;;4910490;28;20174;-86
2020/12/29 03:16:36;;;;;;;54.85;18.40;;;1.00;99.90;;;;;;4916297;28;20518;-84
2020/12/29 03:19:01;;;;;;;53.53;17.58;;;1.00;99.90;;;;;;4915187;28;20194;-84
2020/12/29 03:21:26;;;;;;;37.88;15.93;;;1.00;99.90;;;;;;4913905;28;20091;-85
2020/12/29 03:23:53;;;;;;;47.60;17.65;;;0.90;99.90;;;;;;4917498;28;20103;-85
2020/12/29 03:26:40;;;;;;;41.70;17.25;;;1.00;99.90;;;;;;4914164;28;20115;-84
2020/12/29 03:29:12;;;;;;;46.08;16.50;;;;;;;;;;4896491;28;20171;-85
2020/12/29 03:31:43;;;;;;;42.47;16.25;;;1.00;99.90;;;;;;4913297;28;20108;-85
2020/12/29 03:34:06;;;;;;;48.78;16.45;;;1.00;99.90;;;;;;4918093;28;20107;-85
2020/12/29 03:36:45;;;;;;;51.45;19.25;;;;;;;;;;4915126;28;20095;-86
2020/12/29 03:39:15;;;;;;;48.70;17.67;;;1.00;99.90;;;;;;4914050;28;20171;-86
2020/12/29 03:41:42;;;;;;;49.35;17.83;;;1.00;99.90;;;;;;4923417;28;20129;-86
2020/12/29 03:44:12;;;;;;;51.10;17.10;;;1.10;99.90;;;;;;4907395;28;20085;-86
2020/12/29 03:46:43;;;;;;;48.35;18.13;;;1.00;99.90;;;;;;4925685;28;20116;-87
2020/12/29 03:49:09;;;;;;;45.42;17.80;;;1.00;99.90;;;;;;4910965;28;20091;-85
2020/12/29 03:51:32;;;;;;;53.42;18.98;;;1.00;99.90;;;;;;4915970;28;21651;-86
2020/12/29 03:53:59;;;;;;;46.08;16.65;;;;;;;;;;4915218;28;20110;-86
2020/12/29 03:56:22;;;;;;;49.65;17.75;;;;;;;;;;4912973;28;20183;-86
2020/12/29 03:58:45;;;;;;;52.88;18.23;;;1.00;99.90;;;;;;4913439;28;20096;-86
2020/12/29 04:01:09;;;;;;;48.38;18.33;;;1.00;99.90;;;;;;4914178;28;20095;-85
2020/12/29 04:03:35;;;;;;;47.45;18.02;;;1.00;99.90;;;;;;4919947;28;20182;-85
2020/12/29 04:05:57;;;;;;;47.92;17.98;;;1.00;99.90;;;;;;4920453;28;20087;-85
2020/12/29 04:08:21;;;;;;;50.20;18.45;;;1.00;99.90;;;;;;4927119;28;20107;-85
2020/12/29 04:10:44;;;;;;;50.22;18.92;;;1.00;99.90;;;;;;4919518;28;20085;-84
2020/12/29 04:13:21;;;;;;;46.17;17.75;;;1.00;99.90;;;;;;4914219;28;20088;-87
2020/12/29 04:15:46;;;;;;;54.38;19.13;;;1.00;99.90;;;;;;4923266;28;20189;-84
2020/12/29 04:18:17;;;;;;;66.05;20.05;;;1.10;99.90;;;;;;4915224;28;20084;-86
2020/12/29 04:20:40;;;;;;;59.10;19.08;;;;;;;;;;4917645;28;20084;-86
2020/12/29 04:23:03;;;;;;;52.60;19.70;;;1.10;99.90;;;;;;4913300;28;20121;-87
2020/12/29 04:25:28;;;;;;;66.72;20.60;;;1.10;99.90;;;;;;4906452;28;20092;-86
2020/12/29 04:27:51;;;;;;;56.17;19.60;;;1.10;99.90;;;;;;4916552;28;20113;-87
2020/12/29 04:30:16;;;;;;;58.90;20.35;;;;;;;;;;4916364;28;20091;-86
2020/12/29 04:32:40;;;;;;;59.80;20.58;;;1.10;99.90;;;;;;4907977;28;21137;-84
2020/12/29 04:35:04;;;;;;;51.75;19.83;;;;;;;;;;4909579;28;20088;-86
2020/12/29 04:37:32;;;;;;;57.28;21.77;;;1.20;99.90;;;;;;4916268;28;20101;-86
2020/12/29 04:40:07;;;;;;;61.35;20.05;;;1.10;99.90;;;;;;4916709;28;20997;-86
2020/12/29 04:42:35;;;;;;;63.00;20.25;;;1.20;99.90;;;;;;4914478;28;20092;-85
2020/12/29 04:45:06;;;;;;;61.88;20.90;;;1.20;99.90;;;;;;4906773;28;20113;-84
2020/12/29 04:47:30;;;;;;;68.68;22.33;;;1.20;99.90;;;;;;4906169;28;20096;-84
2020/12/29 04:49:54;;;;;;;62.25;21.50;;;1.20;99.90;;;;;;4912408;28;20082;-85
2020/12/29 04:52:26;;;;;;;65.03;21.42;;;1.20;99.90;;;;;;4915237;28;20136;-85
2020/12/29 04:55:00;;;;;;;59.20;23.13;;;1.20;99.90;;;;;;4915134;28;20086;-86
2020/12/29 04:57:35;;;;;;;84.47;26.92;;;1.20;99.90;;;;;;4895004;28;20551;-85
2020/12/29 05:00:07;;;;;;;75.93;25.05;;;1.20;99.90;;;;;;4910392;28;20435;-86
2020/12/29 05:02:30;;;;;;;77.57;24.80;;;1.20;99.90;;;;;;4912964;28;20087;-85
2020/12/29 05:04:54;;;;;;;69.72;24.10;;;;;;;;;;4914516;28;20087;-86
2020/12/29 05:07:31;;;;;;;67.57;21.77;;;1.30;99.90;;;;;;4911308;28;20106;-85
2020/12/29 05:10:05;;;;;;;65.28;23.40;;;1.20;99.90;;;;;;4911333;28;20103;-85
2020/12/29 05:12:46;;;;;;;71.68;23.67;;;1.20;99.90;;;;;;4912350;28;20110;-84
2020/12/29 05:15:20;;;;;;;62.83;23.42;;;1.30;99.90;;;;;;4901657;28;20093;-83
2020/12/29 05:17:45;;;;;;;65.78;21.60;;;1.30;99.90;;;;;;4910993;28;20087;-85
2020/12/29 05:20:10;;;;;;;68.07;22.40;;;1.20;99.90;;;;;;4917454;28;20089;-85
2020/12/29 05:22:37;;;;;;;;;;;1.20;99.90;;;;;;4914315;28;20088;-85
2020/12/29 05:25:01;;;;;;;54.90;19.65;;;1.20;99.90;;;;;;4920534;28;19967;-85
2020/12/29 05:27:26;;;;;;;56.33;19.48;;;1.20;99.90;;;;;;4907742;28;20099;-86
2020/12/29 05:29:53;;;;;;;48.13;19.50;;;1.20;99.90;;;;;;4915801;28;20176;-85
2020/12/29 05:32:24;;;;;;;53.55;19.20;;;1.30;99.90;;;;;;4916074;28;20547;-83
2020/12/29 05:34:49;;;;;;;55.83;20.00;;;;;;;;;;4902673;28;20090;-85
2020/12/29 05:37:17;;;;;;;55.70;19.95;;;1.20;99.90;;;;;;4912676;28;20087;-83
2020/12/29 05:39:42;;;;;;;63.78;19.00;;;1.20;99.90;;;;;;4908156;28;20087;-82
2020/12/29 05:42:05;;;;;;;62.35;20.52;;;1.20;99.90;;;;;;4907525;28;20132;-85
2020/12/29 05:44:32;;;;;;;57.40;20.20;;;1.20;99.90;;;;;;4913047;28;20107;-83
2020/12/29 05:46:58;;;;;;;63.10;21.48;;;1.20;99.90;;;;;;4888470;28;20135;-85
2020/12/29 05:49:32;;;;;;;60.40;21.50;;;1.20;99.90;;;;;;4910346;28;20093;-83
2020/12/29 05:51:56;;;;;;;58.05;20.10;;;1.10;99.90;;;;;;4910297;28;20094;-84
2020/12/29 05:54:22;;;;;;;58.35;21.42;;;1.10;99.90;;;;;;4909746;28;20092;-85
2020/12/29 05:56:47;;;;;;;63.15;21.52;;;1.10;99.90;;;;;;4915082;28;20098;-86
2020/12/29 05:59:12;;;;;;;59.60;21.90;;;1.10;99.90;;;;;;4920653;28;20090;-84
2020/12/29 06:01:41;;;;;;;54.40;19.23;;;1.20;99.90;;;;;;4899128;28;20098;-83
2020/12/29 06:04:09;;;;;;;61.55;19.38;;;1.10;99.90;;;;;;4913352;28;20093;-85
2020/12/29 06:06:39;;;;;;;52.67;19.08;;;1.20;99.90;;;;;;4913236;28;20095;-84
2020/12/29 06:09:05;;;;;;;53.42;17.90;;;1.10;99.90;;;;;;4913995;28;20087;-84
2020/12/29 06:11:39;;;;;;;51.85;19.10;;;1.10;99.90;;;;;;4910092;28;20088;-85
2020/12/29 06:14:09;;;;;;;61.55;21.17;;;1.10;99.90;;;;;;4909414;28;20530;-85
2020/12/29 06:16:37;;;;;;;60.67;20.20;;;1.10;99.90;;;;;;4910289;28;20139;-84
2020/12/29 06:19:04;;;;;;;58.30;20.52;;;1.10;99.90;;;;;;4909790;28;20600;-84
2020/12/29 06:21:35;;;;;;;53.75;19.17;;;1.00;99.90;;;;;;4909182;28;20098;-85
2020/12/29 06:24:03;;;;;;;64.47;18.73;;;1.10;99.90;;;;;;4906908;28;20567;-85
2020/12/29 06:26:34;;;;;;;58.28;19.95;;;1.10;99.90;;;;;;4910844;28;20090;-84
2020/12/29 06:29:03;;;;;;;55.47;19.88;;;1.10;99.90;;;;;;4915669;28;20094;-84
2020/12/29 06:31:33;;;;;;;57.03;18.35;;;1.10;99.90;;;;;;4916944;28;20093;-83
2020/12/29 06:34:01;;;;;;;52.55;18.88;;;1.10;99.90;;;;;;4908774;28;20091;-84
2020/12/29 06:36:28;;;;;;;57.40;18.30;;;1.10;99.90;;;;;;4908162;28;20111;-84
2020/12/29 06:38:54;;;;;;;51.25;17.67;;;1.10;99.90;;;;;;4915650;28;20088;-85
2020/12/29 06:41:19;;;;;;;55.50;18.23;;;1.10;99.90;;;;;;4916498;28;20090;-83
2020/12/29 06:43:44;;;;;;;58.05;20.25;;;1.10;99.90;;;;;;4926330;28;20437;-84
2020/12/29 06:46:20;;;;;;;54.47;18.52;;;1.10;99.90;;;;;;4916864;28;21212;-84
2020/12/29 06:48:47;;;;;;;;;;;1.10;99.90;;;;;;4915467;28;20087;-84
2020/12/29 06:51:18;;;;;;;55.85;17.50;;;;;;;;;;4915280;28;20117;-85
2020/12/29 06:53:43;;;;;;;59.45;18.80;;;1.10;99.90;;;;;;4917035;28;20515;-83
2020/12/29 06:56:13;;;;;;;59.65;19.48;;;1.10;99.90;;;;;;4915104;28;20445;-83
2020/12/29 06:58:38;;;;;;;59.03;19.00;;;1.10;99.90;;;;;;4913637;28;20764;-82
2020/12/29 07:01:21;;;;;;;53.15;19.58;;;1.10;99.90;;;;;;4916010;28;20091;-82
2020/12/29 07:03:44;;;;;;;55.05;18.95;;;;;;;;;;4914364;28;20125;-82
2020/12/29 07:06:08;;;;;;;59.70;19.77;;;1.20;99.90;;;;;;4917333;28;20088;-83
2020/12/29 07:08:37;;;;;;;63.17;21.88;;;1.20;99.90;;;;;;4907932;28;20093;-82
2020/12/29 07:11:15;;;;;;;60.08;20.48;;;1.20;99.90;;;;;;4923909;28;20088;-84
2020/12/29 07:13:40;;;;;;;61.47;20.73;;;1.10;99.90;;;;;;4912929;28;20108;-84
2020/12/29 07:16:13;;;;;;;58.53;20.25;;;1.20;99.90;;;;;;4907027;28;20098;-83
2020/12/29 07:18:44;;;;;;;56.58;19.25;;;1.20;99.90;;;;;;4910077;28;20090;-84
2020/12/29 07:21:28;;;;;;;57.13;19.77;;;1.20;99.90;;;;;;4912381;28;20585;-84
2020/12/29 07:23:53;;;;;;;56.75;19.48;;;;;;;;;;4904073;28;20094;-84
2020/12/29 07:26:20;;;;;;;73.55;19.83;;;1.20;99.90;;;;;;4914868;28;20093;-84
2020/12/29 07:28:54;;;;;;;59.75;19.80;;;1.20;99.90;;;;;;4915808;28;20177;-85
2020/12/29 07:31:37;;;;;;;56.83;20.13;;;1.20;99.90;;;;;;4914206;28;20095;-83
2020/12/29 07:34:02;;;;;;;54.72;18.98;;;1.20;99.90;;;;;;4923082;28;20489;-82
2020/12/29 07:36:27;;;;;;;67.32;19.88;;;1.10;99.90;;;;;;4922368;28;20476;-83
2020/12/29 07:38:53;;;;;;;60.05;18.98;;;1.20;99.90;;;;;;4920457;28;20161;-83
2020/12/29 07:41:17;;;;;;;52.15;19.35;;;1.20;99.90;;;;;;4901322;28;20088;-85
2020/12/29 07:43:43;;;;;;;61.08;20.63;;;1.20;99.90;;;;;;4927916;28;20097;-82
2020/12/29 07:46:06;;;;;;;58.65;19.58;;;1.20;99.90;;;;;;4913098;28;20090;-84
2020/12/29 07:48:30;;;;;;;53.33;19.05;;;1.20;99.90;;;;;;4910099;28;20091;-84
2020/12/29 07:51:07;;;;;;;61.03;19.17;;;1.30;99.90;;;;;;4914057;28;20104;-84
2020/12/29 07:53:32;;;;;;;57.28;19.77;;;1.20;99.90;;;;;;4917084;28;20130;-84
2020/12/29 07:55:57;;;;;;;61.65;19.85;;;1.20;99.90;;;;;;4909382;28;21147;-83
2020/12/29 07:58:23;;;;;;;67.40;20.00;;;1.20;99.90;;;;;;4905052;28;20092;-84
2020/12/29 08:00:46;;;;;;;64.32;20.42;;;1.20;99.90;;;;;;4911885;28;20188;-83
2020/12/29 08:03:18;;;;;;;64.70;21.60;;;1.20;99.90;;;;;;4907259;28;20183;-83
2020/12/29 08:05:45;;;;;;;67.13;20.52;;;1.20;99.90;;;;;;4905512;28;20092;-84
2020/12/29 08:08:24;;;;;;;62.33;20.58;;;1.20;99.90;;;;;;4863387;28;20187;-83
2020/12/29 08:11:12;;;;;;;65.65;20.85;;;1.20;99.90;;;;;;4858641;28;20093;-86
2020/12/29 08:14:14;;;;;;;67.15;21.25;;;1.30;99.90;;;;;;4865393;28;20093;-85
2020/12/29 08:17:03;;;;;;;65.30;20.52;;;1.30;99.90;;;;;;4826151;28;20089;-84
2020/12/29 08:20:18;;;;;;;63.05;19.45;;;1.30;99.90;;;;;;4855735;28;20422;-83
2020/12/29 08:23:10;;;;;;;73.43;20.15;;;1.40;99.90;;;;;;4872159;28;20090;-81
2020/12/29 08:25:54;;;;;;;57.70;18.77;;;1.40;99.90;;;;;;4857474;28;20148;-83
2020/12/29 08:28:58;;;;;;;79.50;20.95;;;1.40;99.90;;;;;;4855175;28;20096;-84
2020/12/29 08:31:35;;;;;;;80.03;19.67;;;1.40;99.90;;;;;;4867012;28;20525;-84
2020/12/29 08:34:00;;;;;;;66.90;18.80;;;1.40;99.90;;;;;;4915739;28;20096;-83
2020/12/29 08:36:46;;;;;;;73.35;20.83;;;1.40;99.90;;;;;;4881013;28;20095;-84
2020/12/29 08:46:03;;;;;;;63.47;20.00;;;1.60;99.90;;;;;;4852619;28;20085;-84
2020/12/29 08:49:28;;;;;;;77.38;20.83;;;1.60;99.90;;;;;;4856438;28;20092;-84
2020/12/29 09:02:33;;;;;;;82.68;21.92;;;1.80;99.90;;;;;;4790830;28;20109;-82
2020/12/29 09:05:26;;;;;;;70.20;20.65;;;1.80;99.90;;;;;;4849232;28;20188;-83
2020/12/29 09:08:05;;;;;;;85.53;23.13;;;1.90;99.90;;;;;;4851762;28;20091;-82
2020/12/29 09:25:43;;;;;;;81.25;22.05;;;2.20;99.90;;;;;;4861921;28;20091;-82
2020/12/29 09:41:32;;;;;;;67.55;21.20;;;2.40;99.90;;;;;;4846326;28;20538;-86
2020/12/29 09:47:21;;;;;;;78.15;22.63;;;2.60;99.90;;;;;;4837522;28;20633;-82
2020/12/29 09:50:28;;;;;;;78.47;22.17;;;2.70;99.90;;;;;;4845422;28;20106;-81
2020/12/29 10:21:05;;;;;;;60.58;20.27;;;2.40;99.90;;;;;;4850419;28;20442;-81
2020/12/29 10:54:34;;;;;;;67.97;21.73;;;2.40;99.90;;;;;;4858820;28;20120;-81
2020/12/29 11:10:07;;;;;;;59.45;20.20;;;2.40;99.90;;;;;;4865386;28;20099;-82
2020/12/29 11:19:22;;;;;;;58.03;20.23;;;2.40;99.90;;;;;;4856518;28;20613;-83
2020/12/29 11:21:59;;;;;;;64.35;21.17;;;2.50;99.90;;;;;;4855469;28;20449;-81
2020/12/29 11:28:00;;;;;;;75.03;20.38;;;2.60;99.90;;;;;;4850899;28;20090;-82
2020/12/29 11:30:24;;;;;;;72.47;22.30;;;2.60;99.90;;;;;;4853888;28;20090;-83
2020/12/29 11:32:49;;;;;;;72.57;22.23;;;2.60;99.90;;;;;;4857910;28;20102;-82
2020/12/29 11:35:35;;;;;;;57.97;21.77;;;2.60;99.90;;;;;;4864819;28;20162;-82
2020/12/29 11:38:24;;;;;;;66.75;22.98;;;2.60;99.90;;;;;;4866403;28;20101;-82
2020/12/29 11:40:50;;;;;;;66.13;21.17;;;2.70;99.90;;;;;;4886890;28;20094;-81
2020/12/29 11:43:18;;;;;;;63.80;20.80;;;2.70;99.90;;;;;;4909697;28;20094;-82
2020/12/29 11:45:45;;;;;;;60.95;21.00;;;2.70;99.90;;;;;;4906358;28;20500;-81
2020/12/29 11:48:08;;;;;;;63.53;20.20;;;2.70;99.90;;;;;;4912809;28;20095;-82
2020/12/29 11:50:31;;;;;;;61.55;20.73;;;2.70;99.90;;;;;;4906576;28;20493;-81
2020/12/29 11:52:59;;;;;;;62.63;20.08;;;2.70;99.90;;;;;;4912668;28;20205;-82
2020/12/29 11:55:25;;;;;;;56.33;19.15;;;2.70;99.90;;;;;;4912404;28;20110;-83
2020/12/29 11:57:48;;;;;;;50.95;19.42;;;2.70;99.90;;;;;;4912587;28;20648;-81
2020/12/29 12:00:13;;;;;;;46.38;17.42;;;2.70;99.90;;;;;;4910886;28;20531;-83
2020/12/29 12:02:36;;;;;;;63.20;19.90;;;2.80;99.90;;;;;;4912719;28;20087;-82
2020/12/29 12:04:59;;;;;;;56.67;17.85;;;2.80;99.90;;;;;;4911562;28;20099;-82
2020/12/29 12:07:22;;;;;;;50.60;17.88;;;2.70;99.90;;;;;;4909883;28;20091;-83
2020/12/29 12:09:46;;;;;;;48.28;17.88;;;2.70;99.90;;;;;;4902295;28;20118;-82
2020/12/29 12:12:10;;;;;;;51.78;17.42;;;2.60;99.90;;;;;;4893298;28;20115;-82
2020/12/29 12:14:36;;;;;;;53.70;17.80;;;2.70;99.90;;;;;;4920269;28;20088;-83
2020/12/29 12:17:04;;;;;;;53.35;18.30;;;2.70;99.90;;;;;;4912962;28;20998;-81
2020/12/29 12:19:27;;;;;;;58.97;18.02;;;2.60;99.90;;;;;;4908409;28;20479;-81
2020/12/29 12:21:50;;;;;;;53.03;18.13;;;2.60;99.90;;;;;;4911464;28;20092;-82
2020/12/29 12:24:15;;;;;;;51.92;18.10;;;2.60;99.90;;;;;;4908282;28;20095;-82
2020/12/29 12:26:39;;;;;;;50.28;17.40;;;2.60;99.90;;;;;;4903891;28;20126;-82
2020/12/29 12:29:03;;;;;;;46.40;16.05;;;2.60;99.90;;;;;;4911927;28;20101;-81
2020/12/29 12:31:27;;;;;;;52.25;18.15;;;2.60;99.90;;;;;;4910307;28;20097;-82
2020/12/29 12:33:51;;;;;;;52.72;18.15;;;;;;;;;;4903216;28;20447;-81
2020/12/29 12:36:15;;;;;;;49.08;16.90;;;2.60;99.90;;;;;;4908977;28;20174;-82
2020/12/29 12:38:38;;;;;;;44.95;16.83;;;2.50;99.90;;;;;;4908838;28;20104;-82
2020/12/29 12:41:01;;;;;;;43.38;16.30;;;2.50;99.90;;;;;;4910076;28;20089;-81
2020/12/29 12:43:23;;;;;;;50.15;16.88;;;2.50;99.90;;;;;;4911643;28;20543;-82
2020/12/29 12:45:48;;;;;;;37.63;13.88;;;2.50;99.90;;;;;;4911229;28;20093;-81
2020/12/29 12:48:11;;;;;;;50.20;17.02;;;2.50;99.90;;;;;;4901286;28;20118;-82
2020/12/29 12:50:34;;;;;;;39.38;14.23;;;2.40;99.90;;;;;;4897839;28;20292;-83
2020/12/29 12:52:57;;;;;;;38.92;13.25;;;2.50;99.90;;;;;;4910661;28;20137;-82
2020/12/29 12:55:20;;;;;;;48.25;15.73;;;2.50;99.90;;;;;;4910845;28;20582;-83
2020/12/29 12:57:42;;;;;;;54.78;15.75;;;2.50;99.90;;;;;;4911715;28;20538;-83
2020/12/29 13:00:05;;;;;;;42.90;15.60;;;2.40;99.90;;;;;;4901655;28;20608;-81
2020/12/29 13:02:28;;;;;;;39.05;15.15;;;2.40;99.90;;;;;;4909709;28;20195;-81
2020/12/29 13:04:53;;;;;;;37.70;14.10;;;2.40;99.90;;;;;;4912533;28;20129;-81
2020/12/29 13:07:18;;;;;;;37.73;14.57;;;;;;;;;;4909221;28;20092;-82
2020/12/29 13:09:42;;;;;;;39.38;14.48;;;2.30;99.90;;;;;;4903659;28;20567;-81
2020/12/29 13:12:05;;;;;;;41.65;13.82;;;2.30;99.90;;;;;;4911464;28;20104;-81
2020/12/29 13:14:28;;;;;;;33.95;13.10;;;2.30;99.90;;;;;;4911444;28;20110;-80
2020/12/29 13:16:52;;;;;;;35.03;14.68;;;2.20;99.90;;;;;;4912044;28;20088;-82
2020/12/29 13:19:15;;;;;;;37.03;14.05;;;2.20;99.90;;;;;;4907753;28;20122;-80
2020/12/29 13:21:38;;;;;;;40.05;13.65;;;2.10;99.90;;;;;;4915697;28;20165;-82
2020/12/29 13:24:02;;;;;;;45.80;14.75;;;2.10;99.90;;;;;;4914881;28;20478;-80
2020/12/29 13:26:25;;;;;;;40.53;13.23;;;2.00;99.90;;;;;;4914067;28;20183;-81
2020/12/29 13:28:49;;;;;;;40.55;14.48;;;2.00;99.90;;;;;;4911950;28;20569;-81
2020/12/29 13:31:12;;;;;;;38.60;14.23;;;2.00;99.90;;;;;;4911935;28;20169;-81
2020/12/29 13:33:35;;;;;;;40.08;15.70;;;2.00;99.90;;;;;;4915211;28;20157;-82
2020/12/29 13:35:59;;;;;;;38.67;15.63;;;2.00;99.90;;;;;;4915869;28;20092;-81
2020/12/29 13:38:21;;;;;;;36.58;13.90;;;2.00;99.90;;;;;;4905680;28;20631;-83
2020/12/29 13:40:45;;;;;;;36.75;15.20;;;2.00;99.90;;;;;;4902462;28;20085;-82
2020/12/29 13:43:08;;;;;;;42.05;14.77;;;2.10;99.90;;;;;;4912691;28;20173;-83
2020/12/29 13:45:32;;;;;;;36.45;14.15;;;2.00;99.90;;;;;;4910444;28;20150;-82
2020/12/29 13:47:56;;;;;;;43.42;14.80;;;2.00;99.90;;;;;;4912844;28;20093;-82
2020/12/29 13:50:19;;;;;;;44.30;15.88;;;2.00;99.90;;;;;;4909367;28;20112;-82
2020/12/29 13:52:43;;;;;;;44.75;15.13;;;2.00;99.90;;;;;;4902019;28;20179;-81
2020/12/29 13:55:08;;;;;;;37.15;14.23;;;2.00;99.90;;;;;;4912994;28;20165;-81
2020/12/29 13:57:33;;;;;;;46.00;15.20;;;;;;;;;;4908204;28;20166;-81
2020/12/29 14:00:01;;;;;;;38.55;14.35;;;2.00;99.90;;;;;;4912850;28;20173;-85
2020/12/29 14:02:24;;;;;;;39.13;13.98;;;2.00;99.90;;;;;;4911419;28;20090;-83
2020/12/29 14:04:48;;;;;;;38.20;14.05;;;2.00;99.90;;;;;;4902247;28;20151;-84
2020/12/29 14:07:12;;;;;;;40.03;15.20;;;1.90;99.90;;;;;;4912377;28;20167;-82
2020/12/29 14:09:37;;;;;;;38.28;15.43;;;1.90;99.90;;;;;;4911497;28;20168;-83
2020/12/29 14:12:00;;;;;;;31.52;13.35;;;1.90;99.90;;;;;;4916010;28;20093;-82
2020/12/29 14:14:24;;;;;;;35.53;12.90;;;1.90;99.90;;;;;;4916395;28;20129;-82
2020/12/29 14:16:47;;;;;;;31.30;12.55;;;1.90;99.90;;;;;;4885924;28;20106;-79
2020/12/29 14:19:10;;;;;;;34.58;13.25;;;1.80;99.90;;;;;;4919626;28;20509;-82
2020/12/29 14:21:45;;;;;;;34.60;12.68;;;1.80;99.90;;;;;;4912845;28;20105;-81
2020/12/29 14:24:07;;;;;;;38.15;13.80;;;1.80;99.90;;;;;;4896997;28;20115;-83
2020/12/29 14:26:30;;;;;;;36.78;13.35;;;1.80;99.90;;;;;;4908268;28;20133;-83
2020/12/29 14:28:53;;;;;;;36.65;12.57;;;1.80;99.90;;;;;;4901345;28;20135;-82
2020/12/29 14:31:17;;;;;;;30.23;12.90;;;1.70;99.90;;;;;;4909612;28;20095;-83
2020/12/29 14:33:41;;;;;;;31.70;12.77;;;1.70;99.90;;;;;;4909476;28;20123;-84
2020/12/29 14:36:05;;;;;;;28.40;12.00;;;1.60;99.90;;;;;;4906937;28;20131;-81
2020/12/29 14:38:27;;;;;;;33.50;12.63;;;1.60;99.90;;;;;;4901118;28;20144;-82
2020/12/29 14:40:54;;;;;;;33.85;12.88;;;0.50;99.90;;;;;;4903003;28;20520;-82
2020/12/29 14:43:17;;;;;;;32.08;12.63;;;1.60;99.90;;;;;;4904024;28;20244;-82
2020/12/29 14:45:42;;;;;;;30.70;12.68;;;1.60;99.90;;;;;;4911529;28;20418;-81
2020/12/29 14:48:24;;;;;;;29.70;12.57;;;1.60;99.90;;;;;;4909045;28;20092;-83
2020/12/29 14:50:54;;;;;;;34.97;13.02;;;1.60;99.90;;;;;;4890704;28;20094;-82
2020/12/29 14:53:17;;;;;;;36.58;12.32;;;1.50;99.90;;;;;;4914888;28;20089;-82
2020/12/29 14:55:45;;;;;;;28.42;12.70;;;1.40;99.90;;;;;;4907808;28;21448;-83
2020/12/29 14:58:10;;;;;;;29.25;11.73;;;1.40;99.90;;;;;;4909336;28;20240;-82
2020/12/29 15:00:42;;;;;;;33.30;12.07;;;1.30;99.90;;;;;;4921263;28;20103;-82